Aviation Digital Data Service (ADDS)

Output produced by METARs form (1117 UTC 25 July 2014)
found at http://aviationweather.gov/adds/metars/
 
METAR text: KBFM 251053Z 00000KT 10SM FEW019 23/23 A3001 RMK AO2 SLP162 T02330233
Conditions at: KBFM (MOBILE/BROOKLEY , AL, US) observed 1053 UTC 25 July 2014
Temperature: 23.3°C (74°F)
Dewpoint: 23.3°C (74°F) [RH = 100%]
Pressure (altimeter): 30.01 inches Hg (1016.3 mb)
[Sea-level pressure: 1016.2 mb]
Winds: calm
Visibility: 10 or more miles (16+ km)
Ceiling: at least 12,000 feet AGL
Clouds: few clouds at 1900 feet AGL
Weather: no significant weather observed at this time